Time;durP1;ratioP1;P1;durP2;ratioP2;P2;SDS_P1;SDS_P2;PMS_P1;PMS_P2;Temp;Humidity;BMP_temperature;BMP_pressure;BME280_temperature;BME280_humidity;BME280_pressure;Samples;Min_cycle;Max_cycle;Signal;HPM_P1;HPM_P2
2021/11/15 00:00:50;;;;;;;14.20;10.65;;;9.90;87.30;;;;;;5041976;28;20299;-65
2021/11/15 00:03:18;;;;;;;12.05;9.27;;;9.80;87.20;;;;;;5047305;28;20034;-65
2021/11/15 00:05:44;;;;;;;13.32;8.85;;;9.80;87.10;;;;;;5034833;28;20046;-65
2021/11/15 00:08:10;;;;;;;14.05;8.70;;;9.70;86.90;;;;;;5048827;28;20112;-65
2021/11/15 00:10:35;;;;;;;11.77;8.23;;;9.70;86.70;;;;;;5049308;28;20021;-65
2021/11/15 00:13:01;;;;;;;12.02;7.78;;;9.60;86.30;;;;;;5048642;28;20040;-65
2021/11/15 00:15:29;;;;;;;13.90;8.52;;;9.60;86.30;;;;;;5040345;28;20502;-65
2021/11/15 00:17:56;;;;;;;12.10;8.27;;;9.50;85.90;;;;;;5044014;28;20059;-65
2021/11/15 00:20:23;;;;;;;19.50;11.13;;;9.40;85.50;;;;;;5043095;28;20045;-65
2021/11/15 00:22:49;;;;;;;10.95;8.00;;;9.40;85.50;;;;;;5051403;28;20052;-65
2021/11/15 00:25:16;;;;;;;11.88;8.50;;;9.30;85.60;;;;;;5035380;28;20477;-65
2021/11/15 00:27:42;;;;;;;10.65;7.40;;;9.30;85.80;;;;;;5035460;28;20025;-65
2021/11/15 00:30:10;;;;;;;17.67;7.45;;;9.30;85.70;;;;;;5034695;28;20026;-65
2021/11/15 00:32:37;;;;;;;14.70;7.28;;;9.20;85.40;;;;;;5048390;28;20022;-65
2021/11/15 00:35:04;;;;;;;55.83;8.77;;;9.20;85.40;;;;;;5031620;28;20047;-65
2021/11/15 00:37:29;;;;;;;12.07;7.82;;;9.10;85.40;;;;;;5062109;28;20506;-65
2021/11/15 00:39:55;;;;;;;11.52;8.02;;;9.10;85.50;;;;;;5038289;28;20033;-65
2021/11/15 00:42:21;;;;;;;15.38;9.15;;;9.00;85.60;;;;;;5053434;28;20021;-65
2021/11/15 00:44:47;;;;;;;15.25;9.70;;;9.00;85.90;;;;;;5045318;28;20541;-65
2021/11/15 00:47:13;;;;;;;18.20;11.18;;;9.00;86.00;;;;;;5043391;28;20042;-65
2021/11/15 00:49:39;;;;;;;26.90;13.30;;;9.00;86.40;;;;;;5050112;28;20067;-65
2021/11/15 00:52:05;;;;;;;16.63;12.10;;;9.00;86.70;;;;;;5039188;28;20013;-65
2021/11/15 00:54:33;;;;;;;21.17;13.20;;;9.00;86.90;;;;;;5044234;28;20035;-65
2021/11/15 00:56:59;;;;;;;21.83;13.55;;;9.00;87.10;;;;;;5046130;28;20480;-65
2021/11/15 00:59:27;;;;;;;25.75;13.20;;;9.00;87.30;;;;;;5031640;28;20041;-66
2021/11/15 01:01:53;;;;;;;21.52;13.23;;;9.00;87.40;;;;;;5049018;28;20024;-65
2021/11/15 01:04:19;;;;;;;24.60;14.00;;;9.00;87.60;;;;;;5034558;28;20030;-65
2021/11/15 01:06:44;;;;;;;25.02;13.23;;;9.00;87.70;;;;;;5042401;28;20626;-65
2021/11/15 01:09:10;;;;;;;26.40;14.90;;;9.00;87.90;;;;;;5041596;28;20038;-65
2021/11/15 01:11:36;;;;;;;19.85;13.55;;;9.00;88.20;;;;;;5045136;28;20397;-65
2021/11/15 01:14:02;;;;;;;27.63;15.50;;;9.00;88.20;;;;;;5049405;28;26268;-65
2021/11/15 01:16:28;;;;;;;24.10;14.82;;;9.00;88.20;;;;;;5037929;28;20037;-65
2021/11/15 01:18:54;;;;;;;25.67;14.75;;;9.00;88.40;;;;;;5055293;28;20524;-65
2021/11/15 01:21:25;;;;;;;21.80;13.40;;;9.00;88.40;;;;;;5050506;28;20029;-65
2021/11/15 01:23:51;;;;;;;19.95;13.68;;;9.00;88.50;;;;;;5035946;28;20044;-66
2021/11/15 01:26:17;;;;;;;21.45;14.00;;;9.00;88.50;;;;;;5048418;28;20489;-65
2021/11/15 01:28:43;;;;;;;24.67;13.80;;;9.00;88.50;;;;;;5048875;28;20051;-65
2021/11/15 01:31:09;;;;;;;20.67;13.15;;;9.00;88.50;;;;;;5039678;28;20033;-66
2021/11/15 01:33:35;;;;;;;19.70;12.13;;;8.90;88.30;;;;;;5046002;28;20037;-65
2021/11/15 01:36:01;;;;;;;17.30;11.65;;;8.90;88.20;;;;;;5047177;28;20076;-65
2021/11/15 01:38:27;;;;;;;20.70;12.27;;;8.90;88.10;;;;;;5035247;28;20063;-65
2021/11/15 01:40:52;;;;;;;18.20;12.40;;;8.90;88.00;;;;;;5080231;28;20041;-65
2021/11/15 01:43:18;;;;;;;17.85;11.20;;;8.90;88.00;;;;;;5052305;28;20033;-65
2021/11/15 01:45:44;;;;;;;18.92;11.38;;;8.80;87.90;;;;;;5060343;28;20032;-65
2021/11/15 01:48:12;;;;;;;16.95;10.25;;;8.80;87.80;;;;;;5050237;28;20041;-65
2021/11/15 01:50:40;;;;;;;15.57;9.80;;;8.80;87.70;;;;;;5060638;28;20033;-65
2021/11/15 01:53:08;;;;;;;13.40;8.45;;;8.70;87.50;;;;;;5034960;28;20389;-65
2021/11/15 01:55:35;;;;;;;12.80;8.35;;;8.70;87.40;;;;;;5048346;28;20542;-65
2021/11/15 01:58:03;;;;;;;12.15;8.98;;;8.60;87.00;;;;;;5039220;28;20095;-65
2021/11/15 02:00:34;;;;;;;23.55;9.55;;;8.60;86.90;;;;;;5050296;28;20060;-65
2021/11/15 02:03:00;;;;;;;15.07;8.70;;;8.50;86.70;;;;;;5046842;28;20028;-65
2021/11/15 02:05:26;;;;;;;15.13;10.18;;;8.50;86.80;;;;;;5062384;28;20036;-65
2021/11/15 02:07:52;;;;;;;15.35;9.30;;;8.50;86.80;;;;;;5049261;28;20021;-65
2021/11/15 02:10:18;;;;;;;18.38;11.75;;;8.50;86.80;;;;;;5046013;28;20136;-65
2021/11/15 02:12:44;;;;;;;14.85;9.63;;;8.50;86.80;;;;;;5053925;28;20029;-65
2021/11/15 02:15:13;;;;;;;15.35;9.15;;;8.40;86.70;;;;;;5044472;28;20658;-65
2021/11/15 02:17:40;;;;;;;13.73;8.85;;;8.40;86.70;;;;;;5045814;28;20056;-65
2021/11/15 02:20:28;;;;;;;25.88;12.73;;;8.40;86.60;;;;;;5036383;28;20030;-65
2021/11/15 02:22:55;;;;;;;25.42;14.65;;;8.40;87.50;;;;;;5052338;28;20041;-65
2021/11/15 02:25:25;;;;;;;20.63;12.70;;;8.40;88.80;;;;;;5036547;28;20030;-65
2021/11/15 02:27:53;;;;;;;22.58;12.55;;;8.30;88.50;;;;;;5045384;28;20420;-65
2021/11/15 02:30:23;;;;;;;37.47;17.20;;;8.30;88.30;;;;;;5042053;28;20120;-65
2021/11/15 02:32:49;;;;;;;29.83;16.85;;;8.30;89.00;;;;;;5052287;28;20048;-65
2021/11/15 02:35:16;;;;;;;35.83;18.55;;;8.30;89.00;;;;;;5021176;28;20041;-65
2021/11/15 02:37:43;;;;;;;24.17;14.63;;;8.30;89.50;;;;;;5035210;28;20057;-65
2021/11/15 02:40:11;;;;;;;26.85;15.68;;;8.30;89.60;;;;;;5054858;28;20107;-65
2021/11/15 02:42:38;;;;;;;28.90;16.15;;;8.30;89.30;;;;;;5045567;28;20523;-65
2021/11/15 02:45:06;;;;;;;30.75;16.48;;;8.30;89.30;;;;;;5049746;28;20032;-65
2021/11/15 02:47:33;;;;;;;34.15;18.10;;;8.30;89.20;;;;;;5060051;28;20128;-65
2021/11/15 02:49:59;;;;;;;25.42;14.15;;;8.30;89.30;;;;;;5033494;28;20412;-65
2021/11/15 02:52:25;;;;;;;19.65;12.02;;;8.20;89.30;;;;;;5036003;28;20689;-65
2021/11/15 02:54:51;;;;;;;19.25;12.15;;;8.20;89.10;;;;;;5038062;28;20057;-65
2021/11/15 02:57:19;;;;;;;19.63;12.15;;;8.20;88.90;;;;;;5043165;28;20538;-65
2021/11/15 02:59:46;;;;;;;18.27;11.02;;;8.20;88.70;;;;;;5043853;28;20021;-65
2021/11/15 03:02:13;;;;;;;18.70;11.05;;;8.10;88.60;;;;;;5048613;28;20033;-65
2021/11/15 03:04:40;;;;;;;18.77;11.30;;;8.10;88.50;;;;;;5060965;28;20078;-65
2021/11/15 03:07:06;;;;;;;33.20;11.07;;;8.10;88.30;;;;;;5048103;28;20462;-65
2021/11/15 03:09:32;;;;;;;17.45;10.90;;;8.10;88.10;;;;;;5049916;28;20041;-65
2021/11/15 03:11:58;;;;;;;23.88;9.93;;;8.10;88.00;;;;;;5047632;28;20021;-66
2021/11/15 03:14:24;;;;;;;14.93;9.80;;;8.00;87.90;;;;;;5046680;28;20033;-65
2021/11/15 03:16:49;;;;;;;17.98;10.20;;;8.00;87.80;;;;;;5036175;28;20066;-65
2021/11/15 03:19:15;;;;;;;58.55;12.00;;;8.00;87.80;;;;;;5035666;28;20037;-65
2021/11/15 03:21:41;;;;;;;17.25;10.40;;;7.90;87.70;;;;;;5037821;28;20021;-65
2021/11/15 03:24:07;;;;;;;15.30;9.68;;;7.90;87.60;;;;;;5029591;28;20404;-65
2021/11/15 03:26:33;;;;;;;14.93;8.60;;;7.90;87.60;;;;;;5046920;28;20029;-65
2021/11/15 03:29:00;;;;;;;23.75;7.63;;;7.90;87.50;;;;;;5049553;28;20447;-65
2021/11/15 03:31:31;;;;;;;31.25;7.75;;;7.80;87.30;;;;;;5047810;28;20029;-65
2021/11/15 03:34:05;;;;;;;23.50;7.85;;;7.80;87.00;;;;;;5036232;28;20030;-65
2021/11/15 03:36:31;;;;;;;40.30;7.47;;;7.70;86.80;;;;;;5046784;28;20400;-65
2021/11/15 03:38:58;;;;;;;17.23;6.50;;;7.70;86.70;;;;;;5044736;28;20024;-65
2021/11/15 03:41:26;;;;;;;28.70;6.38;;;7.70;86.70;;;;;;5038186;28;20033;-65
2021/11/15 03:43:52;;;;;;;60.97;5.93;;;7.70;86.50;;;;;;5032708;28;20025;-65
2021/11/15 03:46:19;;;;;;;45.63;6.40;;;7.60;86.20;;;;;;5053781;28;20020;-65
2021/11/15 03:48:45;;;;;;;58.90;6.00;;;7.60;85.90;;;;;;5037785;28;20042;-65
2021/11/15 03:51:12;;;;;;;29.20;5.75;;;7.50;85.80;;;;;;5042572;28;20021;-65
2021/11/15 03:53:39;;;;;;;7.93;5.43;;;7.50;85.70;;;;;;5028081;28;20029;-65
2021/11/15 03:56:10;;;;;;;8.05;5.28;;;7.50;85.60;;;;;;5047157;28;20034;-65
2021/11/15 03:58:38;;;;;;;65.00;8.35;;;7.40;85.60;;;;;;5034865;28;20025;-65
2021/11/15 04:01:04;;;;;;;12.20;6.50;;;7.30;85.50;;;;;;5047688;28;20464;-65
2021/11/15 04:03:32;;;;;;;7.38;5.13;;;7.30;85.70;;;;;;5043220;28;20029;-65
2021/11/15 04:06:06;;;;;;;68.40;7.35;;;7.30;85.80;;;;;;5038051;28;20025;-65
2021/11/15 04:08:33;;;;;;;13.93;5.82;;;7.30;85.60;;;;;;5045906;28;20060;-65
2021/11/15 04:11:00;;;;;;;111.10;7.43;;;7.30;85.40;;;;;;5035864;28;20112;-65
2021/11/15 04:13:38;;;;;;;25.30;6.88;;;7.20;85.10;;;;;;5045924;28;20029;-65
2021/11/15 04:16:09;;;;;;;12.23;7.43;;;7.20;85.00;;;;;;5037759;28;21061;-65
2021/11/15 04:18:38;;;;;;;28.48;6.68;;;7.20;85.00;;;;;;5050173;28;20024;-65
2021/11/15 04:21:06;;;;;;;34.25;7.05;;;7.10;85.00;;;;;;5046152;28;20024;-65
2021/11/15 04:23:33;;;;;;;37.30;7.28;;;7.10;85.00;;;;;;5037926;28;20401;-65
2021/11/15 04:26:00;;;;;;;13.52;6.40;;;7.10;85.10;;;;;;5045231;28;20025;-65
2021/11/15 04:28:26;;;;;;;14.27;5.97;;;7.10;85.20;;;;;;5036525;28;20053;-65
2021/11/15 04:30:52;;;;;;;13.65;6.53;;;7.10;84.90;;;;;;5048857;28;20152;-65
2021/11/15 04:33:18;;;;;;;16.17;6.72;;;7.00;84.80;;;;;;5055213;28;20022;-65
2021/11/15 04:35:44;;;;;;;11.00;6.50;;;7.00;84.50;;;;;;5057458;28;20027;-65
2021/11/15 04:38:11;;;;;;;11.23;6.93;;;7.00;84.40;;;;;;5037101;28;20037;-65
2021/11/15 04:40:38;;;;;;;27.25;7.75;;;6.90;84.20;;;;;;5045531;28;20040;-65
2021/11/15 04:43:04;;;;;;;14.80;6.38;;;6.90;84.10;;;;;;5047233;28;20048;-65
2021/11/15 04:45:31;;;;;;;12.80;6.32;;;6.80;85.10;;;;;;5039502;28;20030;-65
2021/11/15 04:47:57;;;;;;;13.20;6.72;;;6.80;85.20;;;;;;5040235;28;20052;-65
2021/11/15 04:50:23;;;;;;;11.10;6.57;;;6.80;84.20;;;;;;5048985;28;20448;-65
2021/11/15 04:52:49;;;;;;;17.48;8.88;;;6.80;84.30;;;;;;5036369;28;20477;-65
2021/11/15 04:55:17;;;;;;;45.88;20.08;;;6.90;84.40;;;;;;5048092;28;20028;-65
2021/11/15 04:57:43;;;;;;;38.95;18.80;;;7.10;85.40;;;;;;5036782;28;20159;-65
2021/11/15 05:00:20;;;;;;;40.70;19.67;;;7.20;86.90;;;;;;5046724;28;20096;-65
2021/11/15 05:02:47;;;;;;;53.72;24.27;;;7.30;87.50;;;;;;5049863;28;20025;-65
2021/11/15 05:05:13;;;;;;;56.25;24.98;;;7.50;88.60;;;;;;5064513;28;20029;-65
2021/11/15 05:07:39;;;;;;;68.90;25.38;;;7.70;90.10;;;;;;5053257;28;20032;-65
2021/11/15 05:10:06;;;;;;;64.05;25.17;;;7.80;90.10;;;;;;5047491;28;20499;-66
2021/11/15 05:12:35;;;;;;;62.97;24.10;;;8.00;90.20;;;;;;5041779;28;20074;-65
2021/11/15 05:15:06;;;;;;;61.40;24.63;;;8.00;90.20;;;;;;5048163;28;20396;-65
2021/11/15 05:17:32;;;;;;;66.35;24.52;;;8.10;90.10;;;;;;5049119;28;20510;-66
2021/11/15 05:19:58;;;;;;;62.22;25.08;;;8.20;90.10;;;;;;5051502;28;20021;-66
2021/11/15 05:22:24;;;;;;;77.60;25.77;;;8.30;90.00;;;;;;5039793;28;20036;-66
2021/11/15 05:24:50;;;;;;;72.00;26.27;;;8.40;90.00;;;;;;5037750;28;20647;-66
2021/11/15 05:27:15;;;;;;;64.63;25.15;;;8.40;90.00;;;;;;5043153;28;20393;-65
2021/11/15 05:29:41;;;;;;;67.43;26.38;;;8.50;90.30;;;;;;5040315;28;20037;-65
2021/11/15 05:32:08;;;;;;;72.75;25.60;;;8.40;89.60;;;;;;5052143;28;20029;-66
2021/11/15 05:34:33;;;;;;;75.53;27.05;;;8.50;89.80;;;;;;5057935;28;20029;-65
2021/11/15 05:36:59;;;;;;;80.40;26.73;;;8.50;89.70;;;;;;5047311;28;20231;-66
2021/11/15 05:39:25;;;;;;;68.68;25.65;;;8.60;89.90;;;;;;5052627;28;20037;-66
2021/11/15 05:41:51;;;;;;;71.97;26.70;;;8.60;90.00;;;;;;5047512;28;20400;-65
2021/11/15 05:44:17;;;;;;;78.82;26.85;;;8.60;90.00;;;;;;5048311;28;20108;-65
2021/11/15 05:46:44;;;;;;;76.93;27.10;;;8.60;89.90;;;;;;5066021;28;20091;-65
2021/11/15 05:49:10;;;;;;;81.55;26.83;;;8.50;89.80;;;;;;5045806;28;20500;-65
2021/11/15 05:51:36;;;;;;;80.03;26.63;;;8.50;89.90;;;;;;5041263;28;20025;-65
2021/11/15 05:54:02;;;;;;;74.68;26.35;;;8.50;89.90;;;;;;5048446;28;20082;-65
2021/11/15 05:56:27;;;;;;;77.97;26.00;;;8.50;90.30;;;;;;5048249;28;20029;-66
2021/11/15 05:58:53;;;;;;;78.63;26.10;;;8.40;89.70;;;;;;5049762;28;20595;-65
2021/11/15 06:01:19;;;;;;;85.95;27.83;;;8.30;89.70;;;;;;5037127;28;20401;-65
2021/11/15 06:03:45;;;;;;;81.97;26.90;;;8.30;89.70;;;;;;5027171;28;20504;-65
2021/11/15 06:06:11;;;;;;;74.70;26.52;;;8.20;89.70;;;;;;5044420;28;20032;-66
2021/11/15 06:08:37;;;;;;;72.93;25.00;;;8.10;89.70;;;;;;5023155;28;20033;-66
2021/11/15 06:11:03;;;;;;;68.72;25.08;;;8.10;89.80;;;;;;5033743;28;20029;-66
2021/11/15 06:13:29;;;;;;;64.10;25.17;;;8.00;89.80;;;;;;5044592;28;20515;-66
2021/11/15 06:15:56;;;;;;;59.30;23.60;;;7.90;89.80;;;;;;5037902;28;20099;-65
2021/11/15 06:18:21;;;;;;;60.33;23.45;;;7.90;89.90;;;;;;5041088;28;20033;-65
2021/11/15 06:20:47;;;;;;;61.15;23.45;;;7.90;89.90;;;;;;5029866;28;20031;-65
2021/11/15 06:23:13;;;;;;;51.80;22.98;;;7.90;89.90;;;;;;5036913;28;20032;-65
2021/11/15 06:25:40;;;;;;;56.55;23.35;;;7.90;90.00;;;;;;5049844;28;20108;-66
2021/11/15 06:28:06;;;;;;;64.25;24.52;;;7.90;89.90;;;;;;5031408;28;20168;-66
2021/11/15 06:30:32;;;;;;;69.50;24.92;;;7.90;89.80;;;;;;5048008;28;20107;-66
2021/11/15 06:32:58;;;;;;;67.38;25.67;;;8.00;89.80;;;;;;5047024;28;20058;-66
2021/11/15 06:35:27;;;;;;;55.83;23.95;;;8.00;90.20;;;;;;5049191;28;20029;-65
2021/11/15 06:37:53;;;;;;;59.22;23.88;;;8.10;89.60;;;;;;5048995;28;20079;-66
2021/11/15 06:40:20;;;;;;;56.22;23.20;;;8.10;89.50;;;;;;5030871;28;20606;-66
2021/11/15 06:42:46;;;;;;;64.82;24.80;;;8.10;89.40;;;;;;5047876;28;20052;-66
2021/11/15 06:45:12;;;;;;;53.78;23.85;;;8.20;89.30;;;;;;5048604;28;20033;-66
2021/11/15 06:47:40;;;;;;;58.95;25.02;;;8.20;89.20;;;;;;5046885;28;20465;-65
2021/11/15 06:50:08;;;;;;;61.88;23.05;;;8.20;89.10;;;;;;5047661;28;20053;-65
2021/11/15 06:52:34;;;;;;;67.47;24.23;;;8.20;89.00;;;;;;5035534;28;20041;-65
2021/11/15 06:55:00;;;;;;;84.13;24.58;;;8.20;88.90;;;;;;5035603;28;20033;-65
2021/11/15 06:57:28;;;;;;;67.78;23.92;;;8.10;88.90;;;;;;5035475;28;20106;-65
2021/11/15 06:59:54;;;;;;;65.82;24.52;;;8.10;88.80;;;;;;5036044;28;20056;-65
2021/11/15 07:02:20;;;;;;;65.20;23.92;;;8.10;88.80;;;;;;5041298;28;20037;-65
2021/11/15 07:04:47;;;;;;;67.65;23.88;;;8.10;88.80;;;;;;5034405;28;20029;-65
2021/11/15 07:07:14;;;;;;;63.45;23.48;;;8.10;88.80;;;;;;5045050;28;20134;-65
2021/11/15 07:09:40;;;;;;;86.70;24.17;;;8.10;88.80;;;;;;5039705;28;20049;-65
2021/11/15 07:12:06;;;;;;;77.22;23.63;;;8.00;88.70;;;;;;5043463;28;20032;-65
2021/11/15 07:14:32;;;;;;;70.03;22.17;;;8.00;88.60;;;;;;5033845;28;20029;-65
2021/11/15 07:16:58;;;;;;;75.28;24.02;;;8.00;88.70;;;;;;5033203;28;20062;-65
2021/11/15 07:19:24;;;;;;;122.45;24.63;;;8.00;88.60;;;;;;5035667;28;20026;-65
2021/11/15 07:21:50;;;;;;;132.65;24.05;;;8.00;88.50;;;;;;5035240;28;20420;-65
2021/11/15 07:24:16;;;;;;;327.27;24.58;;;8.00;88.50;;;;;;5035497;28;20025;-65
2021/11/15 07:26:42;;;;;;;154.55;24.30;;;7.90;88.40;;;;;;5034502;28;20017;-65
2021/11/15 07:29:08;;;;;;;145.05;24.70;;;7.90;88.40;;;;;;5031748;28;20040;-65
2021/11/15 07:31:37;;;;;;;99.72;22.23;;;7.90;88.40;;;;;;5035617;28;20060;-65
2021/11/15 07:34:03;;;;;;;218.60;20.13;;;7.90;88.40;;;;;;5035321;28;20515;-65
2021/11/15 07:36:31;;;;;;;142.07;20.75;;;7.90;88.20;;;;;;5035229;28;20021;-65
2021/11/15 07:38:57;;;;;;;345.45;116.20;;;7.80;87.90;;;;;;5035302;28;20036;-65
2021/11/15 07:41:23;;;;;;;725.65;320.58;;;7.90;87.70;;;;;;5041143;28;20022;-65
2021/11/15 07:43:49;;;;;;;107.72;31.75;;;7.80;87.40;;;;;;5033430;28;20029;-65
2021/11/15 07:46:15;;;;;;;56.25;19.52;;;7.90;87.10;;;;;;5035833;28;20021;-65
2021/11/15 07:48:40;;;;;;;89.63;17.25;;;7.90;86.80;;;;;;5035520;28;20095;-65
2021/11/15 07:51:06;;;;;;;29.38;16.17;;;8.20;86.30;;;;;;5036437;28;20504;-65
2021/11/15 07:53:36;;;;;;;39.65;18.10;;;8.40;85.70;;;;;;5033037;28;20029;-65
2021/11/15 07:56:08;;;;;;;22.13;14.88;;;8.70;84.70;;;;;;5031946;28;20079;-65
2021/11/15 07:58:36;;;;;;;17.33;13.00;;;9.20;83.00;;;;;;5018111;28;20453;-65
2021/11/15 08:01:03;;;;;;;23.45;13.57;;;9.70;81.40;;;;;;5034760;28;20029;-65
2021/11/15 08:03:29;;;;;;;21.95;14.80;;;10.10;79.90;;;;;;5034765;28;20037;-65
2021/11/15 08:05:55;;;;;;;26.58;18.83;;;10.70;77.80;;;;;;5034707;28;20025;-65
2021/11/15 08:08:21;;;;;;;28.33;18.00;;;11.40;75.70;;;;;;5031277;28;20048;-65
2021/11/15 08:10:49;;;;;;;25.95;17.00;;;12.00;74.20;;;;;;5042241;28;20069;-65
2021/11/15 08:13:15;;;;;;;24.40;16.58;;;12.60;72.60;;;;;;5042072;28;20025;-65
2021/11/15 08:15:40;;;;;;;24.10;16.35;;;13.30;71.30;;;;;;5038662;28;20396;-65
2021/11/15 08:18:07;;;;;;;26.42;17.25;;;13.90;70.00;;;;;;5034503;28;20492;-65
2021/11/15 08:20:38;;;;;;;26.00;17.02;;;14.50;68.50;;;;;;5033880;28;20025;-65
2021/11/15 08:23:09;;;;;;;25.27;17.45;;;15.10;66.90;;;;;;5035933;28;20060;-65
2021/11/15 08:25:59;;;;;;;29.88;19.85;;;15.70;65.70;;;;;;5053653;28;20021;-65
2021/11/15 08:28:28;;;;;;;31.50;20.88;;;16.20;63.70;;;;;;5044568;28;20029;-66
2021/11/15 08:30:55;;;;;;;30.40;21.92;;;16.90;62.10;;;;;;5040785;28;20041;-65
2021/11/15 08:33:21;;;;;;;34.78;22.70;;;17.30;60.40;;;;;;5038352;28;20018;-65
2021/11/15 08:35:48;;;;;;;35.03;23.58;;;17.80;57.70;;;;;;5038171;28;20025;-66
2021/11/15 08:38:35;;;;;;;34.17;24.33;;;18.20;55.90;;;;;;5050491;28;20017;-66
2021/11/15 08:41:00;;;;;;;32.83;25.00;;;18.70;54.80;;;;;;5035671;28;20026;-65
2021/11/15 08:43:26;;;;;;;33.97;24.33;;;18.70;54.20;;;;;;5038475;28;20488;-65
2021/11/15 08:45:52;;;;;;;33.53;25.08;;;18.40;54.80;;;;;;5038034;28;20037;-66
2021/11/15 08:48:19;;;;;;;33.42;25.65;;;18.30;54.60;;;;;;5037778;28;20532;-66
2021/11/15 08:50:45;;;;;;;38.83;31.38;;;18.70;54.80;;;;;;5038388;28;20029;-66
2021/11/15 08:53:10;;;;;;;60.65;54.28;;;19.20;53.50;;;;;;5033648;28;20081;-66
2021/11/15 08:55:36;;;;;;;37.08;25.98;;;19.80;51.90;;;;;;5038469;28;20083;-66
2021/11/15 08:58:04;;;;;;;35.00;27.02;;;20.40;50.40;;;;;;5048078;28;20086;-66
2021/11/15 09:00:30;;;;;;;37.15;28.80;;;20.80;48.60;;;;;;5043329;28;20114;-66
2021/11/15 09:02:56;;;;;;;36.47;30.45;;;21.30;48.40;;;;;;5037783;28;20381;-66
2021/11/15 09:05:23;;;;;;;36.15;30.50;;;21.60;46.00;;;;;;5034605;28;20056;-66
2021/11/15 09:07:48;;;;;;;34.90;28.17;;;22.00;45.60;;;;;;5040413;28;20134;-66
2021/11/15 09:10:16;;;;;;;34.63;26.50;;;22.30;45.10;;;;;;5048133;28;20502;-66
2021/11/15 09:12:43;;;;;;;31.77;25.60;;;22.70;43.90;;;;;;5046581;28;20029;-66
2021/11/15 09:15:13;;;;;;;31.77;26.73;;;23.10;43.50;;;;;;5045725;28;20022;-66
2021/11/15 09:17:42;;;;;;;31.37;24.87;;;23.50;42.30;;;;;;5037153;28;20400;-66
2021/11/15 09:20:09;;;;;;;32.50;24.98;;;24.00;41.10;;;;;;5033761;28;20025;-66
2021/11/15 09:22:35;;;;;;;30.13;24.92;;;24.30;40.40;;;;;;5037459;28;20076;-66
2021/11/15 09:25:03;;;;;;;30.38;26.33;;;24.70;39.50;;;;;;5037441;28;20033;-66
2021/11/15 09:27:29;;;;;;;29.15;24.02;;;25.10;38.80;;;;;;5037930;28;20447;-66
2021/11/15 09:29:56;;;;;;;33.75;30.02;;;24.00;39.30;;;;;;5037556;28;20531;-66
2021/11/15 09:32:22;;;;;;;32.60;28.85;;;24.60;39.70;;;;;;5033400;28;20041;-66
2021/11/15 09:34:49;;;;;;;31.95;28.45;;;25.20;38.10;;;;;;5035576;28;20104;-66
2021/11/15 09:37:16;;;;;;;31.67;28.20;;;25.80;37.20;;;;;;5041885;28;20096;-66
2021/11/15 09:39:44;;;;;;;31.95;27.48;;;26.20;36.40;;;;;;5040685;28;20025;-66
2021/11/15 09:42:12;;;;;;;30.50;27.10;;;26.60;35.50;;;;;;5037238;28;20017;-66
2021/11/15 09:44:39;;;;;;;30.25;25.92;;;26.90;35.00;;;;;;5036138;28;20029;-66
2021/11/15 09:47:05;;;;;;;29.45;26.27;;;27.00;34.50;;;;;;5033968;28;20052;-66
2021/11/15 09:49:31;;;;;;;29.73;25.90;;;26.60;34.90;;;;;;5036724;28;20040;-66
2021/11/15 09:51:58;;;;;;;28.65;24.40;;;24.80;36.70;;;;;;5037317;28;20097;-66
2021/11/15 09:54:24;;;;;;;25.70;20.58;;;23.30;39.60;;;;;;5037458;28;20087;-66
2021/11/15 09:56:51;;;;;;;27.38;21.15;;;22.40;40.40;;;;;;5036891;28;20027;-66
2021/11/15 09:59:18;;;;;;;27.08;20.80;;;23.10;39.80;;;;;;5032926;28;20039;-66
2021/11/15 10:01:48;;;;;;;28.80;23.77;;;24.70;38.20;;;;;;5036253;28;20022;-66
2021/11/15 10:04:17;;;;;;;27.95;24.48;;;25.60;35.70;;;;;;5052806;28;20033;-66
2021/11/15 10:06:57;;;;;;;28.13;23.40;;;26.50;34.50;;;;;;5043948;28;20064;-66
2021/11/15 10:09:34;;;;;;;26.83;22.87;;;27.30;33.10;;;;;;5042694;28;20052;-66
2021/11/15 10:12:13;;;;;;;25.02;21.98;;;27.80;31.90;;;;;;5036751;28;20024;-66
2021/11/15 10:15:00;;;;;;;25.38;22.58;;;27.70;30.70;;;;;;5035666;28;20087;-66
2021/11/15 10:17:45;;;;;;;23.92;20.27;;;28.60;30.90;;;;;;5034299;28;20025;-66
2021/11/15 10:20:13;;;;;;;26.73;21.20;;;28.60;30.20;;;;;;5032417;28;20119;-67
2021/11/15 10:22:40;;;;;;;25.17;21.08;;;28.80;30.30;;;;;;5051013;28;20419;-67
2021/11/15 10:25:07;;;;;;;27.55;22.20;;;29.20;30.00;;;;;;5045036;28;20295;-67
2021/11/15 10:27:34;;;;;;;25.50;21.13;;;27.80;31.10;;;;;;5049510;28;20428;-66
2021/11/15 10:30:10;;;;;;;25.60;19.83;;;26.60;32.20;;;;;;5045442;28;20427;-66
2021/11/15 10:32:42;;;;;;;26.83;20.05;;;25.30;33.10;;;;;;5035160;28;20021;-66
2021/11/15 10:35:08;;;;;;;26.40;21.35;;;24.50;34.40;;;;;;5032598;28;20102;-66
2021/11/15 10:37:37;;;;;;;25.55;21.52;;;25.20;35.10;;;;;;5036573;28;20061;-66
2021/11/15 10:40:11;;;;;;;26.65;20.25;;;26.60;33.90;;;;;;5035952;28;20084;-66
2021/11/15 10:42:46;;;;;;;24.73;19.83;;;26.20;33.00;;;;;;5043623;28;20315;-66
2021/11/15 10:45:20;;;;;;;26.25;21.15;;;24.60;34.60;;;;;;5043832;28;20025;-66
2021/11/15 10:47:56;;;;;;;23.80;19.45;;;25.40;35.50;;;;;;5036146;28;20049;-66
2021/11/15 10:50:30;;;;;;;24.27;19.25;;;26.40;34.20;;;;;;5033199;28;20076;-66
2021/11/15 10:53:00;;;;;;;22.60;18.38;;;26.00;33.20;;;;;;5033627;28;20025;-66
2021/11/15 10:55:27;;;;;;;;;;;24.50;35.00;;;;;;5038280;28;20025;-66
2021/11/15 10:57:52;;;;;;;24.80;18.45;;;24.40;35.40;;;;;;5038259;28;19909;-66
2021/11/15 11:00:23;;;;;;;22.88;18.20;;;25.20;34.50;;;;;;5039589;28;20048;-66
2021/11/15 11:02:53;;;;;;;23.15;18.65;;;24.00;35.60;;;;;;5035011;28;20028;-66
2021/11/15 11:05:28;;;;;;;24.17;18.58;;;25.00;35.90;;;;;;5032483;28;20045;-66
2021/11/15 11:08:09;;;;;;;21.45;17.40;;;25.20;33.80;;;;;;5033536;28;20108;-66
2021/11/15 11:10:44;;;;;;;22.15;17.60;;;26.20;33.20;;;;;;5035726;28;20024;-66
2021/11/15 11:13:14;;;;;;;21.45;17.17;;;26.70;32.30;;;;;;5045598;28;20033;-66
2021/11/15 11:15:44;;;;;;;20.13;16.80;;;27.60;31.40;;;;;;5039582;28;20060;-67
2021/11/15 11:25:56;;;;;;;18.95;16.52;;;31.70;26.60;;;;;;5036985;28;20056;-67
2021/11/15 11:28:31;;;;;;;19.80;17.40;;;32.00;25.50;;;;;;5035682;28;20036;-67
2021/11/15 11:30:59;;;;;;;20.17;17.08;;;32.00;24.70;;;;;;5034931;28;20025;-67
2021/11/15 11:33:30;;;;;;;36.40;32.75;;;30.90;25.60;;;;;;5035256;28;20022;-66
2021/11/15 11:35:58;;;;;;;27.33;23.85;;;31.50;25.80;;;;;;5044527;28;20029;-67
2021/11/15 11:38:24;;;;;;;41.88;37.80;;;32.40;25.60;;;;;;5032361;28;20119;-67
2021/11/15 11:40:51;;;;;;;38.72;35.03;;;32.90;25.40;;;;;;5048101;28;20025;-67
2021/11/15 11:43:17;;;;;;;20.60;17.17;;;33.70;24.50;;;;;;5046183;28;20388;-67
2021/11/15 11:45:47;;;;;;;22.08;19.80;;;34.10;23.60;;;;;;5038202;28;20033;-67
2021/11/15 11:48:15;;;;;;;20.67;18.48;;;34.60;23.30;;;;;;5034861;28;20404;-67
2021/11/15 11:50:52;;;;;;;21.05;18.25;;;34.40;22.70;;;;;;5034463;28;20033;-67
2021/11/15 11:53:23;;;;;;;20.15;18.05;;;35.00;22.50;;;;;;5031559;28;20037;-67
2021/11/15 11:55:50;;;;;;;20.92;18.73;;;33.50;22.80;;;;;;5035994;28;20021;-67
2021/11/15 11:58:24;;;;;;;19.27;16.95;;;33.50;24.10;;;;;;5044794;28;20048;-67
2021/11/15 12:00:57;;;;;;;18.88;16.88;;;33.50;23.70;;;;;;5036833;28;20441;-67
2021/11/15 12:03:28;;;;;;;18.33;16.35;;;34.10;23.30;;;;;;5034916;28;20045;-67
2021/11/15 12:05:55;;;;;;;19.58;16.77;;;34.10;22.40;;;;;;5035056;28;20100;-67
2021/11/15 12:08:53;;;;;;;19.50;16.30;;;33.00;23.70;;;;;;5031694;28;20112;-67
2021/11/15 12:11:24;;;;;;;19.35;16.38;;;32.50;24.00;;;;;;5031288;28;20022;-66
2021/11/15 12:13:50;;;;;;;18.50;16.48;;;33.20;23.40;;;;;;5032618;28;20492;-67
2021/11/15 12:16:16;;;;;;;20.42;16.92;;;33.70;23.00;;;;;;5044702;28;20504;-67
2021/11/15 12:18:54;;;;;;;19.25;15.75;;;34.20;23.00;;;;;;5038261;28;20039;-67
2021/11/15 12:21:23;;;;;;;18.27;16.23;;;35.00;22.50;;;;;;5034697;28;20109;-67
2021/11/15 12:23:51;;;;;;;18.33;14.60;;;33.80;22.20;;;;;;5043496;28;20047;-67
2021/11/15 12:26:35;;;;;;;17.48;15.60;;;34.70;22.60;;;;;;5036454;28;20029;-67
2021/11/15 12:29:17;;;;;;;18.50;16.25;;;34.90;22.10;;;;;;5013542;28;20413;-67
2021/11/15 12:31:46;;;;;;;19.48;16.88;;;32.30;22.90;;;;;;5046751;28;20070;-67
2021/11/15 12:34:12;;;;;;;19.98;16.85;;;30.40;24.30;;;;;;5035474;28;20034;-66
2021/11/15 12:36:40;;;;;;;22.40;17.15;;;28.40;26.40;;;;;;5044034;28;20064;-66
2021/11/15 12:39:16;;;;;;;21.55;17.65;;;26.70;28.50;;;;;;5042958;28;20050;-66
2021/11/15 12:41:48;;;;;;;22.38;17.23;;;26.80;29.60;;;;;;5033840;28;20029;-66
2021/11/15 12:44:29;;;;;;;21.88;17.40;;;26.30;30.20;;;;;;5030300;28;20025;-66
2021/11/15 12:47:13;;;;;;;21.83;17.10;;;26.20;30.60;;;;;;5032100;28;20049;-66